createdAt,value
2019-02-16T00:00:46.077Z,2.00
2019-02-16T00:02:23.082Z,2.00
2019-02-16T00:03:58.688Z,2.00
2019-02-16T00:05:34.424Z,2.00
2019-02-16T00:07:10.093Z,2.00
2019-02-16T00:08:45.686Z,1.90
2019-02-16T00:10:21.544Z,1.90
2019-02-16T00:11:57.154Z,1.90
2019-02-16T00:13:33.354Z,1.80
2019-02-16T00:15:09.777Z,1.80
2019-02-16T00:16:45.643Z,1.80
2019-02-16T00:18:22.954Z,1.80
2019-02-16T00:19:58.863Z,1.70
2019-02-16T00:21:34.558Z,1.70
2019-02-16T00:23:10.165Z,1.70
2019-02-16T00:24:46.178Z,1.70
2019-02-16T00:26:21.848Z,1.60
2019-02-16T00:27:57.469Z,1.60
2019-02-16T00:29:33.237Z,1.60
2019-02-16T00:31:08.980Z,1.60
2019-02-16T00:32:46.245Z,1.60
2019-02-16T00:34:21.977Z,1.60
2019-02-16T00:35:57.684Z,1.60
2019-02-16T00:37:34.702Z,1.50
2019-02-16T00:39:10.328Z,1.60
2019-02-16T00:40:46.137Z,1.50
2019-02-16T00:42:21.790Z,1.50
2019-02-16T00:44:00.307Z,1.50
2019-02-16T00:45:35.930Z,1.40
2019-02-16T00:47:11.733Z,1.50
2019-02-16T00:48:47.451Z,1.50
2019-02-16T00:50:23.056Z,1.50
2019-02-16T00:51:58.671Z,1.50
2019-02-16T00:53:34.461Z,1.40
2019-02-16T00:55:10.100Z,1.40
2019-02-16T00:56:45.615Z,1.40
2019-02-16T00:58:21.328Z,1.40
2019-02-16T00:59:56.933Z,1.40
2019-02-16T01:01:32.575Z,1.40
2019-02-16T01:03:08.109Z,1.40
2019-02-16T01:04:43.700Z,1.40
2019-02-16T01:06:19.400Z,1.40
2019-02-16T01:07:55.209Z,1.30
2019-02-16T01:09:30.854Z,1.40
2019-02-16T01:11:06.537Z,1.30
2019-02-16T01:12:42.157Z,1.40
2019-02-16T01:14:17.784Z,1.30
2019-02-16T01:15:53.404Z,1.30
2019-02-16T01:17:29.116Z,1.30
2019-02-16T01:19:04.730Z,1.30
2019-02-16T01:20:40.238Z,1.30
2019-02-16T01:22:16.058Z,1.30
2019-02-16T01:23:51.711Z,1.30
2019-02-16T01:25:27.244Z,1.30
2019-02-16T01:27:02.854Z,1.30
2019-02-16T01:28:38.449Z,1.30
2019-02-16T01:30:13.964Z,1.30
2019-02-16T01:31:49.410Z,1.20
2019-02-16T01:33:24.928Z,1.30
2019-02-16T01:35:00.541Z,1.20
2019-02-16T01:36:36.143Z,1.20
2019-02-16T01:38:11.663Z,1.20
2019-02-16T01:39:47.258Z,1.20
2019-02-16T01:41:23.208Z,1.20
2019-02-16T01:42:58.820Z,1.10
2019-02-16T01:44:34.421Z,1.10
2019-02-16T01:46:09.924Z,1.10
2019-02-16T01:47:45.657Z,1.10
2019-02-16T01:49:21.188Z,1.10
2019-02-16T01:50:56.741Z,1.10
2019-02-16T01:52:32.352Z,1.00
2019-02-16T01:54:07.965Z,1.00
2019-02-16T01:55:43.575Z,1.00
2019-02-16T01:57:19.221Z,1.00
2019-02-16T01:58:54.812Z,0.90
2019-02-16T02:00:30.358Z,1.00
2019-02-16T02:02:06.060Z,1.00
2019-02-16T02:03:41.580Z,0.90
2019-02-16T02:05:17.170Z,0.90
2019-02-16T02:06:52.697Z,0.90
2019-02-16T02:08:28.308Z,0.90
2019-02-16T02:10:04.185Z,0.90
2019-02-16T02:11:39.786Z,0.90
2019-02-16T02:13:15.310Z,1.00
2019-02-16T02:14:50.882Z,1.00
2019-02-16T02:16:26.407Z,1.00
2019-02-16T02:18:02.022Z,1.00
2019-02-16T02:19:37.736Z,1.00
2019-02-16T02:21:13.280Z,1.10
2019-02-16T02:22:48.795Z,1.10
2019-02-16T02:24:24.435Z,1.10
2019-02-16T02:25:59.937Z,1.10
2019-02-16T02:27:35.552Z,1.00
2019-02-16T02:29:11.296Z,1.00
2019-02-16T02:30:47.288Z,1.00
2019-02-16T02:32:23.069Z,1.00
2019-02-16T02:33:58.790Z,0.90
2019-02-16T02:35:34.428Z,0.90
2019-02-16T02:37:09.941Z,0.90
2019-02-16T02:38:45.556Z,0.90
2019-02-16T02:40:21.072Z,0.90
2019-02-16T02:41:56.616Z,0.90
2019-02-16T02:43:32.224Z,0.90
2019-02-16T02:45:10.836Z,0.80
2019-02-16T02:46:46.428Z,0.80
2019-02-16T02:48:22.168Z,0.80
2019-02-16T02:49:57.681Z,0.80
2019-02-16T02:51:33.467Z,0.80
2019-02-16T02:53:09.151Z,0.70
2019-02-16T02:54:44.794Z,0.70
2019-02-16T02:56:20.421Z,0.70
2019-02-16T02:57:55.929Z,0.70
2019-02-16T02:59:31.716Z,0.70
2019-02-16T03:01:07.301Z,0.60
2019-02-16T03:02:42.927Z,0.60
2019-02-16T03:04:18.444Z,0.60
2019-02-16T03:05:54.207Z,0.60
2019-02-16T03:07:29.887Z,0.60
2019-02-16T03:09:06.190Z,0.60
2019-02-16T03:10:41.713Z,0.60
2019-02-16T03:12:17.239Z,0.50
2019-02-16T03:13:52.957Z,0.50
2019-02-16T03:15:28.473Z,0.50
2019-02-16T03:17:04.063Z,0.40
2019-02-16T03:18:39.591Z,0.30
2019-02-16T03:20:15.217Z,0.20
2019-02-16T03:21:50.806Z,0.30
2019-02-16T03:23:26.415Z,0.20
2019-02-16T03:25:01.943Z,0.20
2019-02-16T03:26:48.414Z,0.20
2019-02-16T03:28:53.382Z,0.20
2019-02-16T03:30:42.389Z,0.20
2019-02-16T03:32:28.415Z,0.10
2019-02-16T03:34:10.326Z,0.10
2019-02-16T03:36:09.046Z,0.10
2019-02-16T03:38:12.056Z,0.10
2019-02-16T03:39:47.945Z,0.10
2019-02-16T03:41:23.567Z,0.00
2019-02-16T03:42:59.178Z,0.00
2019-02-16T03:44:34.811Z,0.00
2019-02-16T03:46:10.450Z,0.00
2019-02-16T03:47:46.070Z,0.00
2019-02-16T03:49:21.593Z,0.00
2019-02-16T03:50:57.273Z,0.00
2019-02-16T03:52:32.930Z,0.00
2019-02-16T03:54:09.944Z,0.00
2019-02-16T03:55:45.657Z,0.00
2019-02-16T03:57:21.169Z,0.10
2019-02-16T03:58:56.914Z,0.10
2019-02-16T04:00:32.521Z,0.10
2019-02-16T04:02:08.222Z,0.10
2019-02-16T04:03:43.899Z,0.20
2019-02-16T04:05:19.567Z,0.10
2019-02-16T04:06:55.079Z,0.20
2019-02-16T04:08:30.667Z,0.20
2019-02-16T04:10:07.826Z,0.30
2019-02-16T04:11:43.577Z,0.30
2019-02-16T04:13:19.198Z,0.30
2019-02-16T04:14:54.704Z,0.30
2019-02-16T04:16:30.285Z,0.30
2019-02-16T04:18:05.869Z,0.40
2019-02-16T04:19:41.462Z,0.40
2019-02-16T04:21:16.972Z,0.40
2019-02-16T04:22:52.609Z,0.40
2019-02-16T04:24:28.250Z,0.40
2019-02-16T04:26:05.515Z,0.40
2019-02-16T04:27:41.169Z,0.50
2019-02-16T04:29:16.794Z,0.40
2019-02-16T04:30:52.699Z,0.50
2019-02-16T04:32:28.315Z,0.50
2019-02-16T04:34:04.115Z,0.50
2019-02-16T04:35:39.723Z,0.50
2019-02-16T04:37:15.417Z,0.50
2019-02-16T04:38:51.043Z,0.50
2019-02-16T04:40:26.663Z,0.50
2019-02-16T04:42:02.382Z,0.50
2019-02-16T04:43:38.277Z,0.60
2019-02-16T04:45:14.000Z,0.50
2019-02-16T04:46:49.812Z,0.50
2019-02-16T04:48:25.446Z,0.60
2019-02-16T04:50:01.152Z,0.60
2019-02-16T04:51:36.946Z,0.60
2019-02-16T04:53:13.285Z,0.60
2019-02-16T04:54:48.900Z,0.60
2019-02-16T04:56:24.678Z,0.70
2019-02-16T04:58:00.209Z,0.60
2019-02-16T04:59:35.734Z,0.70
2019-02-16T05:01:11.456Z,0.70
2019-02-16T05:02:47.015Z,0.70
2019-02-16T05:04:22.644Z,0.70
2019-02-16T05:05:59.807Z,0.70
2019-02-16T05:07:35.411Z,0.70
2019-02-16T05:09:11.141Z,0.70
2019-02-16T05:10:46.656Z,0.70
2019-02-16T05:12:22.382Z,0.70
2019-02-16T05:13:57.832Z,0.70
2019-02-16T05:15:33.467Z,0.70
2019-02-16T05:17:08.984Z,0.70
2019-02-16T05:18:44.512Z,0.70
2019-02-16T05:20:20.164Z,0.70
2019-02-16T05:21:55.685Z,0.70
2019-02-16T05:23:31.370Z,0.70
2019-02-16T05:25:07.134Z,0.70
2019-02-16T05:26:42.653Z,0.70
2019-02-16T05:28:18.171Z,0.70
2019-02-16T05:29:53.701Z,0.70
2019-02-16T05:31:29.209Z,0.70
2019-02-16T05:33:04.853Z,0.70
2019-02-16T05:34:40.477Z,0.60
2019-02-16T05:36:16.194Z,0.70
2019-02-16T05:37:51.940Z,0.60
2019-02-16T05:39:27.526Z,0.70
2019-02-16T05:41:03.288Z,0.70
2019-02-16T05:42:39.024Z,0.60
2019-02-16T05:44:14.613Z,0.70
2019-02-16T05:45:50.132Z,0.70
2019-02-16T05:47:25.769Z,0.60
2019-02-16T05:49:01.281Z,0.60
2019-02-16T05:50:36.835Z,0.60
2019-02-16T05:52:12.459Z,0.60
2019-02-16T05:53:48.138Z,0.60
2019-02-16T05:55:23.682Z,0.70
2019-02-16T05:56:59.453Z,0.60
2019-02-16T05:58:35.050Z,0.70
2019-02-16T06:00:12.605Z,0.70
2019-02-16T06:01:54.095Z,0.70
2019-02-16T06:03:25.490Z,0.70
2019-02-16T06:05:01.196Z,0.70
2019-02-16T06:06:36.722Z,0.70
2019-02-16T06:08:12.445Z,0.70
2019-02-16T06:09:48.257Z,0.70
2019-02-16T06:11:24.113Z,0.70
2019-02-16T06:12:59.713Z,0.70
2019-02-16T06:14:35.236Z,0.80
2019-02-16T06:16:11.556Z,0.70
2019-02-16T06:17:47.337Z,0.80
2019-02-16T06:19:23.076Z,0.80
2019-02-16T06:20:58.584Z,0.80
2019-02-16T06:22:34.118Z,0.80
2019-02-16T06:24:09.733Z,0.80
2019-02-16T06:25:45.491Z,0.80
2019-02-16T06:27:21.087Z,0.90
2019-02-16T06:28:56.628Z,0.90
2019-02-16T06:30:32.128Z,0.90
2019-02-16T06:32:07.855Z,0.90
2019-02-16T06:33:43.867Z,0.90
2019-02-16T06:35:30.163Z,0.90
2019-02-16T06:37:07.417Z,0.90
2019-02-16T06:38:43.053Z,1.00
2019-02-16T06:40:18.558Z,0.90
2019-02-16T06:41:54.350Z,0.90
2019-02-16T06:43:29.944Z,1.00
2019-02-16T06:45:06.660Z,1.00
2019-02-16T06:46:42.309Z,1.00
2019-02-16T06:48:17.859Z,1.00
2019-02-16T06:49:53.566Z,1.00
2019-02-16T06:51:30.941Z,1.00
2019-02-16T06:53:12.796Z,1.10
2019-02-16T06:54:43.907Z,1.10
2019-02-16T06:56:21.154Z,1.10
2019-02-16T06:57:56.783Z,1.10
2019-02-16T06:59:32.387Z,1.10
2019-02-16T07:01:07.929Z,1.10
2019-02-16T07:02:43.537Z,1.00
2019-02-16T07:04:19.152Z,1.10
2019-02-16T07:05:54.654Z,1.10
2019-02-16T07:07:30.204Z,1.10
2019-02-16T07:09:06.118Z,1.10
2019-02-16T07:10:41.744Z,1.10
2019-02-16T07:12:18.739Z,1.10
2019-02-16T07:13:54.413Z,1.10
2019-02-16T07:15:30.009Z,1.10
2019-02-16T07:17:07.100Z,1.10
2019-02-16T07:18:44.470Z,1.20
2019-02-16T07:20:20.892Z,1.10
2019-02-16T07:21:56.403Z,1.10
2019-02-16T07:23:31.985Z,1.10
2019-02-16T07:25:08.501Z,1.10
2019-02-16T07:26:44.067Z,1.10
2019-02-16T07:28:19.559Z,1.10
2019-02-16T07:29:55.078Z,1.10
2019-02-16T07:31:30.670Z,1.20
2019-02-16T07:33:06.297Z,1.10
2019-02-16T07:34:41.927Z,1.10
2019-02-16T07:36:17.567Z,1.20
2019-02-16T07:37:53.136Z,1.20
2019-02-16T07:39:28.847Z,1.20
2019-02-16T07:41:04.371Z,1.20
2019-02-16T07:42:50.777Z,1.20
2019-02-16T07:44:30.866Z,1.30
2019-02-16T07:46:08.218Z,1.30
2019-02-16T07:47:45.480Z,1.30
2019-02-16T07:49:25.485Z,1.30
2019-02-16T07:51:05.610Z,1.30
2019-02-16T07:52:45.580Z,1.30
2019-02-16T07:54:25.380Z,1.30
2019-02-16T07:56:02.689Z,1.30
2019-02-16T07:57:39.861Z,1.40
2019-02-16T07:59:20.207Z,1.40
2019-02-16T08:01:03.760Z,1.40
2019-02-16T08:02:43.687Z,1.40
2019-02-16T08:04:38.585Z,1.40
2019-02-16T08:06:18.427Z,1.50
2019-02-16T08:07:58.552Z,1.50
2019-02-16T08:09:41.509Z,1.50
2019-02-16T08:11:37.303Z,1.60
2019-02-16T08:13:23.103Z,1.60
2019-02-16T08:15:00.393Z,1.60
2019-02-16T08:16:37.551Z,1.60
2019-02-16T08:18:29.966Z,1.70
2019-02-16T08:20:13.499Z,1.70
2019-02-16T08:21:50.921Z,1.70
2019-02-16T08:23:30.943Z,1.70
2019-02-16T08:25:10.805Z,1.70
2019-02-16T08:26:59.857Z,1.80
2019-02-16T08:28:37.065Z,1.80
2019-02-16T08:30:14.226Z,1.80
2019-02-16T08:31:54.186Z,1.80
2019-02-16T08:33:37.306Z,1.90
2019-02-16T08:35:30.694Z,1.90
2019-02-16T08:37:24.238Z,2.00
2019-02-16T08:39:01.609Z,2.00
2019-02-16T08:40:42.912Z,2.00
2019-02-16T08:42:21.562Z,2.10
2019-02-16T08:44:04.584Z,2.10
2019-02-16T08:45:41.832Z,2.20
2019-02-16T08:47:24.808Z,2.20
2019-02-16T08:49:02.003Z,2.20
2019-02-16T08:50:39.250Z,2.30
2019-02-16T08:52:16.402Z,2.20
2019-02-16T08:53:53.562Z,2.20
2019-02-16T08:55:30.728Z,2.30
2019-02-16T08:57:17.015Z,2.30
2019-02-16T08:59:06.509Z,2.20
2019-02-16T09:00:43.656Z,2.30
2019-02-16T09:02:26.797Z,2.30
2019-02-16T09:04:06.683Z,2.30
2019-02-16T09:05:46.763Z,2.40
2019-02-16T09:07:23.935Z,2.50
2019-02-16T09:09:01.237Z,2.50
2019-02-16T09:10:45.532Z,2.60
2019-02-16T09:12:31.835Z,2.60
2019-02-16T09:14:08.995Z,2.60
2019-02-16T09:16:03.600Z,2.70
2019-02-16T09:17:43.437Z,2.70
2019-02-16T09:19:21.627Z,2.70
2019-02-16T09:21:01.779Z,2.70
2019-02-16T09:22:44.460Z,2.80
2019-02-16T09:24:21.714Z,2.80
2019-02-16T09:25:59.019Z,2.80
2019-02-16T09:27:36.293Z,2.80
2019-02-16T09:29:16.650Z,2.80
2019-02-16T09:31:02.751Z,2.80
2019-02-16T09:32:56.131Z,2.80
2019-02-16T09:34:43.821Z,2.90
2019-02-16T09:36:23.797Z,2.90
2019-02-16T09:38:00.990Z,3.00
2019-02-16T09:39:55.720Z,3.00
2019-02-16T09:41:38.646Z,3.00
2019-02-16T09:43:15.909Z,3.00
2019-02-16T09:44:56.215Z,3.10
2019-02-16T09:46:33.459Z,3.10
2019-02-16T09:48:22.792Z,3.10
2019-02-16T09:50:02.742Z,3.10
2019-02-16T09:51:51.778Z,3.10
2019-02-16T09:53:27.390Z,3.20
2019-02-16T09:55:13.500Z,3.30
2019-02-16T09:56:53.748Z,3.30
2019-02-16T09:58:31.897Z,3.30
2019-02-16T10:00:21.011Z,3.30
2019-02-16T10:01:58.180Z,3.40
2019-02-16T10:03:35.324Z,3.50
2019-02-16T10:05:17.599Z,3.60
2019-02-16T10:07:12.492Z,3.60
2019-02-16T10:09:08.022Z,3.60
2019-02-16T10:10:54.010Z,3.70
2019-02-16T10:12:38.329Z,3.80
2019-02-16T10:14:18.522Z,3.90
2019-02-16T10:15:56.544Z,3.90
2019-02-16T10:17:39.759Z,3.90
2019-02-16T10:19:19.793Z,4.00
2019-02-16T10:20:55.176Z,4.00
2019-02-16T10:22:32.327Z,4.00
2019-02-16T10:24:17.720Z,4.10
2019-02-16T10:26:03.691Z,4.10
2019-02-16T10:27:40.833Z,4.10
2019-02-16T10:29:34.188Z,4.10
2019-02-16T10:31:14.194Z,4.10
2019-02-16T10:32:49.695Z,4.10
2019-02-16T10:34:27.812Z,4.20
2019-02-16T10:36:05.164Z,4.20
2019-02-16T10:37:58.727Z,4.20
2019-02-16T10:39:39.136Z,4.20
2019-02-16T10:41:29.738Z,4.20
2019-02-16T10:43:23.382Z,4.30
2019-02-16T10:45:00.853Z,4.30
2019-02-16T10:46:44.095Z,4.30
2019-02-16T10:48:24.158Z,4.30
2019-02-16T10:50:01.412Z,4.30
2019-02-16T10:51:38.660Z,4.30
2019-02-16T10:53:31.691Z,4.40
2019-02-16T10:55:10.622Z,4.50
2019-02-16T10:56:47.406Z,4.50
2019-02-16T10:58:30.047Z,4.50
2019-02-16T11:00:21.948Z,4.50
2019-02-16T11:01:59.094Z,4.50
2019-02-16T11:03:48.379Z,4.60
2019-02-16T11:05:31.293Z,4.60
2019-02-16T11:07:08.614Z,4.60
2019-02-16T11:09:02.187Z,4.70
2019-02-16T11:10:45.467Z,4.80
2019-02-16T11:12:31.842Z,4.90
2019-02-16T11:14:14.993Z,4.90
2019-02-16T11:15:56.093Z,4.90
2019-02-16T11:17:31.479Z,4.90
2019-02-16T11:19:08.719Z,5.00
2019-02-16T11:20:58.038Z,5.00
2019-02-16T11:22:35.276Z,5.00
2019-02-16T11:24:15.486Z,5.00
2019-02-16T11:26:05.010Z,5.00
2019-02-16T11:27:44.986Z,5.10
2019-02-16T11:29:25.252Z,5.10
2019-02-16T11:31:09.701Z,5.20
2019-02-16T11:32:46.921Z,5.30
2019-02-16T11:34:40.434Z,5.30
2019-02-16T11:36:17.677Z,5.40
2019-02-16T11:38:10.303Z,5.40
2019-02-16T11:40:03.869Z,5.50
2019-02-16T11:41:41.115Z,5.60
2019-02-16T11:43:33.379Z,5.60
2019-02-16T11:45:11.902Z,5.70
2019-02-16T11:47:04.923Z,5.70
2019-02-16T11:48:44.884Z,5.60
2019-02-16T11:50:37.114Z,5.70
2019-02-16T11:52:20.154Z,5.80
2019-02-16T11:54:12.178Z,5.90
2019-02-16T11:55:49.448Z,6.20
2019-02-16T11:57:26.688Z,6.60
2019-02-16T11:59:19.779Z,6.70
2019-02-16T12:01:02.750Z,6.90
2019-02-16T12:02:42.876Z,7.10
2019-02-16T12:04:23.074Z,7.30
2019-02-16T12:06:00.355Z,7.40
2019-02-16T12:07:37.497Z,7.60
2019-02-16T12:09:17.164Z,7.80
2019-02-16T12:11:03.607Z,7.90
2019-02-16T12:12:48.063Z,8.10
2019-02-16T12:14:31.199Z,8.20
2019-02-16T12:16:08.470Z,8.30
2019-02-16T12:18:01.606Z,8.50
2019-02-16T12:19:42.945Z,8.50
2019-02-16T12:21:36.523Z,8.70
2019-02-16T12:23:19.501Z,8.90
2019-02-16T12:25:04.977Z,9.00
2019-02-16T12:26:45.926Z,9.00
2019-02-16T12:28:29.072Z,9.20
2019-02-16T12:30:18.781Z,9.20
2019-02-16T12:32:05.206Z,9.40
2019-02-16T12:33:42.462Z,9.60
2019-02-16T12:35:19.809Z,9.60
2019-02-16T12:36:56.962Z,9.70
2019-02-16T12:38:43.091Z,9.80
2019-02-16T12:40:20.326Z,9.80
2019-02-16T12:42:00.431Z,9.90
2019-02-16T12:43:43.191Z,10.00
2019-02-16T12:45:21.446Z,10.00
2019-02-16T12:47:04.994Z,10.10
2019-02-16T12:48:58.176Z,10.00
2019-02-16T12:50:38.316Z,10.20
2019-02-16T12:52:31.841Z,10.30
2019-02-16T12:54:11.634Z,10.30
2019-02-16T12:56:05.103Z,10.40
2019-02-16T12:57:51.346Z,10.30
2019-02-16T12:59:34.541Z,10.40
2019-02-16T13:01:11.690Z,10.50
2019-02-16T13:02:48.954Z,10.40
2019-02-16T13:04:29.966Z,10.50
2019-02-16T13:06:12.638Z,10.50
2019-02-16T13:07:49.888Z,10.60
2019-02-16T13:09:42.078Z,10.50
2019-02-16T13:11:21.754Z,10.70
2019-02-16T13:13:04.621Z,10.60
2019-02-16T13:14:58.229Z,10.60
2019-02-16T13:16:38.522Z,10.70
2019-02-16T13:18:21.662Z,10.70
2019-02-16T13:20:04.744Z,10.90
2019-02-16T13:21:51.098Z,11.00
2019-02-16T13:23:28.527Z,11.10
2019-02-16T13:25:24.166Z,11.00
2019-02-16T13:26:54.721Z,11.10
2019-02-16T13:28:40.790Z,11.00
2019-02-16T13:30:24.047Z,11.00
2019-02-16T13:32:02.011Z,11.10
2019-02-16T13:33:54.399Z,11.20
2019-02-16T13:35:31.575Z,11.00
2019-02-16T13:37:08.719Z,11.10
2019-02-16T13:38:55.037Z,11.10
2019-02-16T13:40:35.416Z,11.30
2019-02-16T13:42:12.667Z,11.30
2019-02-16T13:43:53.768Z,11.40
2019-02-16T13:45:30.948Z,11.30
2019-02-16T13:47:10.908Z,11.30
2019-02-16T13:48:48.067Z,11.30
2019-02-16T13:50:25.325Z,11.30
2019-02-16T13:52:14.305Z,11.20
2019-02-16T13:54:06.664Z,11.30
2019-02-16T13:55:43.898Z,11.30
2019-02-16T13:57:26.858Z,11.50
2019-02-16T13:59:04.011Z,11.50
2019-02-16T14:00:47.048Z,11.60
2019-02-16T14:02:36.324Z,11.70
2019-02-16T14:04:30.564Z,11.70
2019-02-16T14:06:19.992Z,11.70
2019-02-16T14:08:13.594Z,11.70
2019-02-16T14:09:53.334Z,11.60
2019-02-16T14:11:33.683Z,11.60
2019-02-16T14:13:10.926Z,11.60
2019-02-16T14:14:51.019Z,11.60
2019-02-16T14:16:40.490Z,11.60
2019-02-16T14:18:17.486Z,11.50
2019-02-16T14:19:53.200Z,11.40
2019-02-16T14:21:28.818Z,11.40
2019-02-16T14:23:04.428Z,11.40
2019-02-16T14:24:47.397Z,11.40
2019-02-16T14:26:23.020Z,11.30
2019-02-16T14:27:58.614Z,11.30
2019-02-16T14:29:34.241Z,11.30
2019-02-16T14:31:09.929Z,11.20
2019-02-16T14:32:45.445Z,11.20
2019-02-16T14:34:20.980Z,11.20
2019-02-16T14:35:56.491Z,11.20
2019-02-16T14:37:33.841Z,11.10
2019-02-16T14:39:13.843Z,11.10
2019-02-16T14:40:49.463Z,11.10
2019-02-16T14:42:24.961Z,11.00
2019-02-16T14:44:00.395Z,11.10
2019-02-16T14:45:37.551Z,11.10
2019-02-16T14:47:13.188Z,11.00
2019-02-16T14:48:50.043Z,11.00
2019-02-16T14:50:25.782Z,10.90
2019-02-16T14:52:01.491Z,10.90
2019-02-16T14:53:37.207Z,10.80
2019-02-16T14:55:17.625Z,10.80
2019-02-16T14:56:53.298Z,10.70
2019-02-16T14:58:28.902Z,10.60
2019-02-16T15:00:08.051Z,10.60
2019-02-16T15:01:43.565Z,10.60
2019-02-16T15:03:19.088Z,10.50
2019-02-16T15:04:54.769Z,10.40
2019-02-16T15:06:30.382Z,10.40
2019-02-16T15:08:05.894Z,10.30
2019-02-16T15:09:41.409Z,10.30
2019-02-16T15:11:19.978Z,10.20
2019-02-16T15:12:55.486Z,10.20
2019-02-16T15:14:31.252Z,10.10
2019-02-16T15:16:06.950Z,10.10
2019-02-16T15:17:42.674Z,10.10
2019-02-16T15:19:18.182Z,10.00
2019-02-16T15:20:53.713Z,10.00
2019-02-16T15:22:29.214Z,10.00
2019-02-16T15:24:04.777Z,10.00
2019-02-16T15:25:40.329Z,9.90
2019-02-16T15:27:17.322Z,9.90
2019-02-16T15:28:52.930Z,9.80
2019-02-16T15:30:28.458Z,9.80
2019-02-16T15:32:03.947Z,9.70
2019-02-16T15:33:39.445Z,9.60
2019-02-16T15:35:15.046Z,9.50
2019-02-16T15:36:52.369Z,9.40
2019-02-16T15:38:28.050Z,9.30
2019-02-16T15:40:06.383Z,9.10
2019-02-16T15:41:42.011Z,9.00
2019-02-16T15:43:17.579Z,8.80
2019-02-16T15:44:53.183Z,8.70
2019-02-16T15:46:28.783Z,8.60
2019-02-16T15:48:04.512Z,8.40
2019-02-16T15:49:41.179Z,8.30
2019-02-16T15:51:18.641Z,8.20
2019-02-16T15:52:54.031Z,8.10
2019-02-16T15:54:29.664Z,8.10
2019-02-16T15:56:10.560Z,8.00
2019-02-16T15:57:42.774Z,7.80
2019-02-16T15:59:19.782Z,7.70
2019-02-16T16:00:55.370Z,7.60
2019-02-16T16:02:30.956Z,7.40
2019-02-16T16:04:06.533Z,7.30
2019-02-16T16:05:42.131Z,7.30
2019-02-16T16:07:18.115Z,7.20
2019-02-16T16:08:59.305Z,7.10
2019-02-16T16:10:36.812Z,7.00
2019-02-16T16:12:14.155Z,6.90
2019-02-16T16:13:49.550Z,6.90
2019-02-16T16:15:27.778Z,6.80
2019-02-16T16:17:07.527Z,6.80
2019-02-16T16:18:57.935Z,6.70
2019-02-16T16:20:35.279Z,6.60
2019-02-16T16:22:23.372Z,6.50
2019-02-16T16:24:12.622Z,6.50
2019-02-16T16:25:56.112Z,6.40
2019-02-16T16:27:39.253Z,6.40
2019-02-16T16:29:32.714Z,6.40
2019-02-16T16:31:11.514Z,6.30
2019-02-16T16:32:47.126Z,6.20
2019-02-16T16:34:24.376Z,6.20
2019-02-16T16:36:05.868Z,6.20
2019-02-16T16:37:43.219Z,6.10
2019-02-16T16:39:32.181Z,6.00
2019-02-16T16:41:09.591Z,5.90
2019-02-16T16:42:46.980Z,5.80
2019-02-16T16:44:36.503Z,5.80
2019-02-16T16:46:30.112Z,5.80
2019-02-16T16:48:07.459Z,5.70
2019-02-16T16:49:44.595Z,5.60
2019-02-16T16:51:27.763Z,5.50
2019-02-16T16:53:07.485Z,5.50
2019-02-16T16:54:56.651Z,5.50
2019-02-16T16:56:33.893Z,5.50
2019-02-16T16:58:19.801Z,5.50
2019-02-16T17:00:13.659Z,5.50
2019-02-16T17:01:48.922Z,5.50
2019-02-16T17:03:24.316Z,5.50
2019-02-16T17:05:18.278Z,5.50
2019-02-16T17:06:55.424Z,5.40
2019-02-16T17:08:32.806Z,5.40
2019-02-16T17:10:10.048Z,5.50
2019-02-16T17:12:05.353Z,5.40
2019-02-16T17:13:51.429Z,5.40
2019-02-16T17:15:31.636Z,5.40
2019-02-16T17:17:11.755Z,5.40
2019-02-16T17:18:51.990Z,5.40
2019-02-16T17:20:32.162Z,5.40
2019-02-16T17:22:12.193Z,5.40
2019-02-16T17:24:01.193Z,5.40
2019-02-16T17:25:54.883Z,5.40
2019-02-16T17:27:36.347Z,5.40
2019-02-16T17:29:13.484Z,5.40
2019-02-16T17:30:50.644Z,5.40
2019-02-16T17:32:33.596Z,5.30
2019-02-16T17:34:22.449Z,5.30
2019-02-16T17:36:11.429Z,5.40
2019-02-16T17:37:51.158Z,5.30
2019-02-16T17:39:31.106Z,5.30
2019-02-16T17:41:11.189Z,5.30
2019-02-16T17:42:46.459Z,5.40
2019-02-16T17:44:39.803Z,5.40
2019-02-16T17:46:33.003Z,5.30
2019-02-16T17:48:19.042Z,5.30
2019-02-16T17:50:12.606Z,5.30
2019-02-16T17:52:04.436Z,5.40
2019-02-16T17:53:51.545Z,5.30
2019-02-16T17:55:31.195Z,5.40
2019-02-16T17:57:24.614Z,5.30
2019-02-16T17:59:04.448Z,5.30
2019-02-16T18:00:45.633Z,5.20
2019-02-16T18:02:25.856Z,5.20
2019-02-16T18:04:01.241Z,5.20
2019-02-16T18:05:53.422Z,5.10
2019-02-16T18:07:31.179Z,5.10
2019-02-16T18:09:08.910Z,5.10
2019-02-16T18:11:03.094Z,5.10
2019-02-16T18:12:56.905Z,5.00
2019-02-16T18:14:35.393Z,5.00
2019-02-16T18:16:32.311Z,4.90
2019-02-16T18:18:26.134Z,4.90
2019-02-16T18:20:03.383Z,4.80
2019-02-16T18:21:48.090Z,4.90
2019-02-16T18:23:43.772Z,4.90
2019-02-16T18:27:40.302Z,4.80
2019-02-16T18:29:15.735Z,4.80
2019-02-16T18:30:59.147Z,4.80
2019-02-16T18:32:42.032Z,4.70
2019-02-16T18:34:34.545Z,4.70
2019-02-16T18:36:20.719Z,4.70
2019-02-16T18:38:09.676Z,4.60
2019-02-16T18:39:47.052Z,4.70
2019-02-16T18:41:27.227Z,4.60
2019-02-16T18:43:16.656Z,4.70
2019-02-16T18:44:56.309Z,4.70
2019-02-16T18:46:36.271Z,4.80
2019-02-16T18:48:16.352Z,4.80
2019-02-16T18:50:00.351Z,4.70
2019-02-16T18:51:54.105Z,4.70
2019-02-16T18:53:43.292Z,4.70
2019-02-16T18:55:37.992Z,4.80
2019-02-16T18:57:15.264Z,4.80
2019-02-16T18:58:52.495Z,4.70
2019-02-16T19:00:32.742Z,4.70
2019-02-16T19:02:13.871Z,4.70
2019-02-16T19:03:51.117Z,4.60
2019-02-16T19:05:46.640Z,4.60
2019-02-16T19:07:29.364Z,4.50
2019-02-16T19:09:10.369Z,4.50
2019-02-16T19:10:50.482Z,4.60
2019-02-16T19:12:43.663Z,4.60
2019-02-16T19:14:39.293Z,4.60
2019-02-16T19:16:32.360Z,4.70
2019-02-16T19:18:09.598Z,4.70
2019-02-16T19:19:52.981Z,4.60
2019-02-16T19:21:38.723Z,4.50
2019-02-16T19:23:21.717Z,4.40
2019-02-16T19:24:58.960Z,4.40
2019-02-16T19:26:36.123Z,4.40
2019-02-16T19:28:29.599Z,4.30
2019-02-16T19:30:18.651Z,4.30
2019-02-16T19:32:01.655Z,4.30
2019-02-16T19:33:41.375Z,4.20
2019-02-16T19:35:34.559Z,4.20
2019-02-16T19:37:27.094Z,4.10
2019-02-16T19:39:02.571Z,4.10
2019-02-16T19:40:53.232Z,4.00
2019-02-16T19:42:39.423Z,4.00
2019-02-16T19:44:22.790Z,4.00
2019-02-16T19:46:00.071Z,3.90
2019-02-16T19:47:44.660Z,3.90
2019-02-16T19:49:24.249Z,3.90
2019-02-16T19:51:01.494Z,3.80
2019-02-16T19:52:38.672Z,3.80
2019-02-16T19:54:22.982Z,3.80
2019-02-16T19:56:18.846Z,3.80
2019-02-16T19:57:56.105Z,3.70
2019-02-16T19:59:33.462Z,3.70
2019-02-16T20:01:26.734Z,3.80
2019-02-16T20:03:02.270Z,3.80
2019-02-16T20:04:39.445Z,3.80
2019-02-16T20:06:22.552Z,3.70
2019-02-16T20:08:05.873Z,3.70
2019-02-16T20:09:43.257Z,3.60
2019-02-16T20:11:30.601Z,3.60
2019-02-16T20:13:13.591Z,3.60
2019-02-16T20:14:59.853Z,3.60
2019-02-16T20:16:53.253Z,3.60
2019-02-16T20:18:42.762Z,3.60
2019-02-16T20:20:31.681Z,3.50
2019-02-16T20:22:20.983Z,3.50
2019-02-16T20:24:04.323Z,3.50
2019-02-16T20:25:41.590Z,3.50
2019-02-16T20:27:36.713Z,3.50
2019-02-16T20:29:15.424Z,3.50
2019-02-16T20:31:08.708Z,3.50
2019-02-16T20:32:48.913Z,3.40
2019-02-16T20:34:26.060Z,3.40
2019-02-16T20:36:05.923Z,3.40
2019-02-16T20:37:45.943Z,3.40
2019-02-16T20:39:23.208Z,3.50
2019-02-16T20:41:09.740Z,3.50
2019-02-16T20:42:59.230Z,3.50
2019-02-16T20:44:39.380Z,3.40
2019-02-16T20:46:19.882Z,3.40
2019-02-16T20:47:57.059Z,3.40
2019-02-16T20:49:38.409Z,3.40
2019-02-16T20:51:15.758Z,3.40
2019-02-16T20:53:06.392Z,3.50
2019-02-16T20:54:52.806Z,3.50
2019-02-16T20:56:36.718Z,3.50
2019-02-16T20:58:13.878Z,3.40
2019-02-16T21:00:06.304Z,3.40
2019-02-16T21:01:59.940Z,3.40
2019-02-16T21:03:43.221Z,3.40
2019-02-16T21:05:18.700Z,3.40
2019-02-16T21:07:13.915Z,3.30
2019-02-16T21:08:54.050Z,3.30
2019-02-16T21:10:31.292Z,3.30
2019-02-16T21:12:12.820Z,3.30
2019-02-16T21:13:55.927Z,3.30
2019-02-16T21:15:37.611Z,3.20
2019-02-16T21:17:23.922Z,3.20
2019-02-16T21:19:16.542Z,3.20
2019-02-16T21:20:53.972Z,3.20
2019-02-16T21:22:34.108Z,3.20
2019-02-16T21:24:11.345Z,3.20
2019-02-16T21:26:04.870Z,3.20
2019-02-16T21:27:42.139Z,3.20
2019-02-16T21:29:35.403Z,3.20
2019-02-16T21:31:24.657Z,3.20
2019-02-16T21:33:14.279Z,3.20
2019-02-16T21:34:52.572Z,3.20
2019-02-16T21:36:30.241Z,3.30
2019-02-16T21:38:16.642Z,3.30
2019-02-16T21:39:56.646Z,3.20
2019-02-16T21:41:48.713Z,3.20
2019-02-16T21:43:36.330Z,3.20
2019-02-16T21:45:16.548Z,3.20
2019-02-16T21:46:59.736Z,3.20
2019-02-16T21:48:36.887Z,3.20
2019-02-16T21:50:13.962Z,3.20
2019-02-16T21:52:00.545Z,3.20
2019-02-16T21:53:54.141Z,3.20
2019-02-16T21:55:49.760Z,3.20
2019-02-16T21:57:43.303Z,3.20
2019-02-16T21:59:26.333Z,3.20
2019-02-16T22:01:09.630Z,3.20
2019-02-16T22:02:49.558Z,3.10
2019-02-16T22:04:26.818Z,3.10
2019-02-16T22:06:02.289Z,3.10
2019-02-16T22:07:39.535Z,3.10
2019-02-16T22:09:16.925Z,3.10